createdAt,value
2019-05-15T00:00:33.000Z,9.44
2019-05-15T00:01:33.000Z,9.41
2019-05-15T00:02:33.000Z,9.34
2019-05-15T00:03:33.000Z,9.35
2019-05-15T00:04:33.000Z,9.31
2019-05-15T00:05:33.000Z,9.20
2019-05-15T00:06:33.000Z,9.26
2019-05-15T00:07:33.000Z,9.26
2019-05-15T00:08:33.000Z,9.21
2019-05-15T00:09:33.000Z,9.26
2019-05-15T00:10:33.000Z,9.21
2019-05-15T00:11:33.000Z,9.06
2019-05-15T00:12:33.000Z,9.03
2019-05-15T00:13:33.000Z,9.10
2019-05-15T00:14:33.000Z,9.14
2019-05-15T00:15:33.000Z,9.17
2019-05-15T00:16:33.000Z,9.17
2019-05-15T00:17:33.000Z,8.91
2019-05-15T00:18:33.000Z,8.86
2019-05-15T00:19:33.000Z,8.98
2019-05-15T00:20:33.000Z,9.00
2019-05-15T00:21:33.000Z,9.06
2019-05-15T00:22:33.000Z,8.91
2019-05-15T00:23:33.000Z,8.72
2019-05-15T00:24:33.000Z,8.71
2019-05-15T00:25:33.000Z,8.78
2019-05-15T00:26:33.000Z,8.79
2019-05-15T00:27:33.000Z,8.75
2019-05-15T00:28:33.000Z,8.76
2019-05-15T00:29:33.000Z,8.76
2019-05-15T00:30:33.000Z,8.71
2019-05-15T00:31:33.000Z,8.66
2019-05-15T00:32:33.000Z,8.72
2019-05-15T00:33:33.000Z,8.78
2019-05-15T00:34:33.000Z,8.78
2019-05-15T00:35:33.000Z,8.72
2019-05-15T00:36:33.000Z,8.59
2019-05-15T00:37:33.000Z,8.61
2019-05-15T00:38:33.000Z,8.65
2019-05-15T00:39:33.000Z,8.59
2019-05-15T00:40:33.000Z,8.62
2019-05-15T00:41:33.000Z,8.66
2019-05-15T00:42:33.000Z,8.68
2019-05-15T00:43:33.000Z,8.71
2019-05-15T00:44:33.000Z,8.71
2019-05-15T00:45:33.000Z,8.66
2019-05-15T00:46:33.000Z,8.68
2019-05-15T00:47:33.000Z,8.69
2019-05-15T00:48:33.000Z,8.68
2019-05-15T00:49:33.000Z,8.74
2019-05-15T00:50:33.000Z,8.78
2019-05-15T00:51:33.000Z,8.83
2019-05-15T00:52:33.000Z,8.82
2019-05-15T00:53:33.000Z,8.80
2019-05-15T00:54:33.000Z,8.82
2019-05-15T00:55:33.000Z,8.86
2019-05-15T00:56:33.000Z,8.88
2019-05-15T00:57:33.000Z,8.85
2019-05-15T00:58:33.000Z,8.88
2019-05-15T00:59:33.000Z,8.88
2019-05-15T01:00:33.000Z,8.85
2019-05-15T01:01:33.000Z,8.78
2019-05-15T01:02:33.000Z,8.83
2019-05-15T01:03:33.000Z,8.82
2019-05-15T01:04:33.000Z,8.83
2019-05-15T01:05:33.000Z,8.80
2019-05-15T01:06:33.000Z,8.80
2019-05-15T01:07:33.000Z,8.86
2019-05-15T01:08:33.000Z,8.85
2019-05-15T01:09:33.000Z,8.80
2019-05-15T01:10:34.000Z,8.83
2019-05-15T01:11:33.000Z,8.83
2019-05-15T01:12:33.000Z,8.89
2019-05-15T01:13:33.000Z,8.72
2019-05-15T01:14:33.000Z,8.78
2019-05-15T01:15:33.000Z,8.75
2019-05-15T01:16:33.000Z,8.72
2019-05-15T01:17:33.000Z,8.74
2019-05-15T01:18:33.000Z,8.76
2019-05-15T01:19:33.000Z,8.76
2019-05-15T01:20:33.000Z,8.76
2019-05-15T01:21:33.000Z,8.74
2019-05-15T01:22:33.000Z,8.66
2019-05-15T01:23:33.000Z,8.69
2019-05-15T01:24:33.000Z,8.71
2019-05-15T01:25:33.000Z,8.71
2019-05-15T01:26:33.000Z,8.72
2019-05-15T01:27:33.000Z,8.74
2019-05-15T01:28:33.000Z,8.72
2019-05-15T01:29:33.000Z,8.72
2019-05-15T01:30:33.000Z,8.71
2019-05-15T01:31:33.000Z,8.71
2019-05-15T01:32:33.000Z,8.72
2019-05-15T01:33:33.000Z,8.74
2019-05-15T01:34:33.000Z,8.71
2019-05-15T01:35:33.000Z,8.74
2019-05-15T01:36:33.000Z,8.74
2019-05-15T01:37:33.000Z,8.72
2019-05-15T01:38:33.000Z,8.76
2019-05-15T01:39:33.000Z,8.75
2019-05-15T01:40:33.000Z,8.72
2019-05-15T01:41:33.000Z,8.69
2019-05-15T01:42:33.000Z,8.72
2019-05-15T01:43:33.000Z,8.74
2019-05-15T01:44:33.000Z,8.75
2019-05-15T01:45:33.000Z,8.79
2019-05-15T01:46:33.000Z,8.75
2019-05-15T01:47:33.000Z,8.76
2019-05-15T01:48:33.000Z,8.76
2019-05-15T01:49:33.000Z,8.80
2019-05-15T01:50:33.000Z,8.76
2019-05-15T01:51:33.000Z,8.74
2019-05-15T01:52:33.000Z,8.76
2019-05-15T01:53:33.000Z,8.75
2019-05-15T01:54:33.000Z,8.72
2019-05-15T01:55:33.000Z,8.71
2019-05-15T01:56:33.000Z,8.69
2019-05-15T01:57:33.000Z,8.65
2019-05-15T01:58:33.000Z,8.62
2019-05-15T01:59:33.000Z,8.48
2019-05-15T02:00:33.000Z,8.52
2019-05-15T02:01:33.000Z,8.51
2019-05-15T02:02:34.000Z,8.55
2019-05-15T02:03:33.000Z,8.55
2019-05-15T02:04:33.000Z,8.55
2019-05-15T02:05:33.000Z,8.51
2019-05-15T02:06:33.000Z,8.44
2019-05-15T02:07:33.000Z,8.40
2019-05-15T02:08:33.000Z,8.36
2019-05-15T02:09:33.000Z,8.37
2019-05-15T02:10:33.000Z,8.37
2019-05-15T02:11:33.000Z,8.34
2019-05-15T02:12:33.000Z,8.34
2019-05-15T02:13:32.000Z,8.33
2019-05-15T02:14:32.000Z,8.34
2019-05-15T02:15:32.000Z,8.36
2019-05-15T02:16:32.000Z,8.38
2019-05-15T02:17:32.000Z,8.41
2019-05-15T02:18:32.000Z,8.43
2019-05-15T02:19:32.000Z,8.34
2019-05-15T02:20:32.000Z,8.36
2019-05-15T02:21:32.000Z,8.38
2019-05-15T02:22:32.000Z,8.38
2019-05-15T02:23:32.000Z,8.40
2019-05-15T02:24:33.000Z,8.40
2019-05-15T02:25:32.000Z,8.40
2019-05-15T02:26:32.000Z,8.36
2019-05-15T02:27:32.000Z,8.10
2019-05-15T02:28:32.000Z,7.98
2019-05-15T02:29:32.000Z,8.03
2019-05-15T02:30:32.000Z,8.02
2019-05-15T02:31:32.000Z,8.02
2019-05-15T02:32:32.000Z,8.03
2019-05-15T02:33:32.000Z,8.02
2019-05-15T02:34:32.000Z,8.05
2019-05-15T02:35:32.000Z,8.06
2019-05-15T02:36:32.000Z,8.03
2019-05-15T02:37:32.000Z,8.05
2019-05-15T02:38:32.000Z,8.08
2019-05-15T02:39:32.000Z,8.09
2019-05-15T02:40:32.000Z,8.03
2019-05-15T02:41:32.000Z,8.01
2019-05-15T02:42:32.000Z,8.03
2019-05-15T02:43:32.000Z,8.03
2019-05-15T02:44:32.000Z,8.01
2019-05-15T02:45:32.000Z,7.95
2019-05-15T02:46:32.000Z,7.91
2019-05-15T02:47:32.000Z,7.89
2019-05-15T02:48:32.000Z,7.91
2019-05-15T02:49:32.000Z,7.92
2019-05-15T02:50:32.000Z,7.91
2019-05-15T02:51:32.000Z,7.92
2019-05-15T02:52:32.000Z,7.91
2019-05-15T02:53:32.000Z,7.91
2019-05-15T02:54:32.000Z,7.88
2019-05-15T02:55:32.000Z,7.71
2019-05-15T02:56:32.000Z,7.74
2019-05-15T02:57:32.000Z,7.77
2019-05-15T02:58:32.000Z,7.81
2019-05-15T02:59:32.000Z,7.82
2019-05-15T03:00:32.000Z,7.82
2019-05-15T03:01:32.000Z,7.86
2019-05-15T03:02:32.000Z,7.86
2019-05-15T03:03:32.000Z,7.85
2019-05-15T03:04:32.000Z,7.81
2019-05-15T03:05:32.000Z,7.81
2019-05-15T03:06:32.000Z,7.86
2019-05-15T03:07:33.000Z,7.80
2019-05-15T03:08:32.000Z,7.75
2019-05-15T03:09:32.000Z,7.75
2019-05-15T03:10:32.000Z,7.80
2019-05-15T03:11:32.000Z,7.80
2019-05-15T03:12:32.000Z,7.80
2019-05-15T03:13:32.000Z,7.78
2019-05-15T03:14:32.000Z,7.78
2019-05-15T03:15:32.000Z,7.65
2019-05-15T03:16:32.000Z,7.68
2019-05-15T03:17:32.000Z,7.72
2019-05-15T03:18:32.000Z,7.72
2019-05-15T03:19:32.000Z,7.77
2019-05-15T03:20:32.000Z,7.75
2019-05-15T03:21:32.000Z,7.69
2019-05-15T03:22:32.000Z,7.72
2019-05-15T03:23:32.000Z,7.71
2019-05-15T03:24:32.000Z,7.72
2019-05-15T03:25:32.000Z,7.72
2019-05-15T03:26:32.000Z,7.67
2019-05-15T03:27:32.000Z,7.47
2019-05-15T03:28:32.000Z,7.53
2019-05-15T03:29:32.000Z,7.55
2019-05-15T03:30:32.000Z,7.55
2019-05-15T03:31:32.000Z,7.57
2019-05-15T03:32:32.000Z,7.59
2019-05-15T03:33:32.000Z,7.57
2019-05-15T03:34:32.000Z,7.59
2019-05-15T03:35:32.000Z,7.58
2019-05-15T03:36:32.000Z,7.54
2019-05-15T03:37:32.000Z,7.53
2019-05-15T03:38:32.000Z,7.48
2019-05-15T03:39:32.000Z,7.43
2019-05-15T03:40:32.000Z,7.41
2019-05-15T03:41:32.000Z,7.46
2019-05-15T03:42:32.000Z,7.47
2019-05-15T03:43:32.000Z,7.50
2019-05-15T03:44:32.000Z,7.48
2019-05-15T03:45:32.000Z,7.47
2019-05-15T03:46:32.000Z,7.46
2019-05-15T03:47:32.000Z,7.44
2019-05-15T03:48:32.000Z,7.43
2019-05-15T03:49:32.000Z,7.39
2019-05-15T03:50:32.000Z,7.36
2019-05-15T03:51:32.000Z,7.33
2019-05-15T03:52:32.000Z,7.23
2019-05-15T03:53:32.000Z,7.30
2019-05-15T03:54:32.000Z,7.26
2019-05-15T03:55:32.000Z,7.24
2019-05-15T03:56:32.000Z,7.27
2019-05-15T03:57:32.000Z,7.26
2019-05-15T03:58:32.000Z,7.23
2019-05-15T03:59:32.000Z,7.24
2019-05-15T04:00:32.000Z,7.26
2019-05-15T04:01:32.000Z,7.27
2019-05-15T04:02:32.000Z,7.24
2019-05-15T04:03:32.000Z,7.26
2019-05-15T04:04:32.000Z,7.24
2019-05-15T04:05:32.000Z,7.29
2019-05-15T04:06:32.000Z,7.24
2019-05-15T04:07:32.000Z,7.26
2019-05-15T04:08:32.000Z,7.27
2019-05-15T04:09:32.000Z,7.26
2019-05-15T04:10:32.000Z,7.24
2019-05-15T04:11:33.000Z,7.29
2019-05-15T04:12:32.000Z,7.27
2019-05-15T04:13:32.000Z,7.29
2019-05-15T04:14:32.000Z,7.26
2019-05-15T04:15:33.000Z,7.26
2019-05-15T04:16:33.000Z,7.23
2019-05-15T04:17:33.000Z,7.18
2019-05-15T04:18:33.000Z,7.19
2019-05-15T04:19:33.000Z,7.20
2019-05-15T04:20:33.000Z,7.20
2019-05-15T04:21:33.000Z,7.22
2019-05-15T04:22:33.000Z,7.19
2019-05-15T04:23:33.000Z,7.18
2019-05-15T04:24:33.000Z,7.19
2019-05-15T04:25:33.000Z,7.13
2019-05-15T04:26:33.000Z,6.96
2019-05-15T04:27:33.000Z,7.02
2019-05-15T04:28:33.000Z,7.02
2019-05-15T04:29:33.000Z,7.01
2019-05-15T04:30:33.000Z,7.03
2019-05-15T04:31:33.000Z,6.98
2019-05-15T04:32:33.000Z,7.01
2019-05-15T04:33:33.000Z,7.03
2019-05-15T04:34:33.000Z,7.12
2019-05-15T04:35:33.000Z,7.23
2019-05-15T04:36:33.000Z,7.33
2019-05-15T04:37:33.000Z,7.34
2019-05-15T04:38:33.000Z,7.31
2019-05-15T04:39:33.000Z,7.29
2019-05-15T04:40:33.000Z,7.34
2019-05-15T04:41:33.000Z,7.30
2019-05-15T04:42:33.000Z,7.19
2019-05-15T04:43:33.000Z,7.13
2019-05-15T04:44:33.000Z,7.02
2019-05-15T04:45:33.000Z,7.03
2019-05-15T04:46:32.000Z,7.03
2019-05-15T04:47:32.000Z,7.02
2019-05-15T04:48:32.000Z,6.96
2019-05-15T04:49:32.000Z,6.91
2019-05-15T04:50:32.000Z,6.84
2019-05-15T04:51:32.000Z,6.74
2019-05-15T04:52:32.000Z,6.75
2019-05-15T04:53:32.000Z,6.84
2019-05-15T04:54:32.000Z,6.91
2019-05-15T04:55:32.000Z,6.95
2019-05-15T04:56:32.000Z,6.99
2019-05-15T04:57:32.000Z,7.01
2019-05-15T04:58:32.000Z,6.95
2019-05-15T04:59:32.000Z,7.01
2019-05-15T05:00:32.000Z,6.99
2019-05-15T05:01:32.000Z,6.99
2019-05-15T05:02:32.000Z,6.96
2019-05-15T05:03:32.000Z,7.05
2019-05-15T05:04:32.000Z,7.12
2019-05-15T05:05:32.000Z,7.13
2019-05-15T05:06:32.000Z,7.15
2019-05-15T05:07:32.000Z,7.20
2019-05-15T05:08:32.000Z,7.20
2019-05-15T05:09:32.000Z,7.16
2019-05-15T05:10:32.000Z,7.24
2019-05-15T05:11:32.000Z,7.29
2019-05-15T05:12:32.000Z,7.31
2019-05-15T05:13:32.000Z,7.39
2019-05-15T05:14:32.000Z,7.40
2019-05-15T05:15:32.000Z,7.43
2019-05-15T05:16:32.000Z,7.48
2019-05-15T05:17:33.000Z,7.50
2019-05-15T05:18:33.000Z,7.57
2019-05-15T05:19:33.000Z,7.59
2019-05-15T05:20:33.000Z,7.64
2019-05-15T05:21:33.000Z,7.67
2019-05-15T05:22:33.000Z,7.62
2019-05-15T05:23:33.000Z,7.62
2019-05-15T05:24:33.000Z,7.67
2019-05-15T05:25:33.000Z,7.71
2019-05-15T05:26:33.000Z,7.77
2019-05-15T05:27:33.000Z,7.82
2019-05-15T05:28:33.000Z,7.84
2019-05-15T05:29:33.000Z,7.85
2019-05-15T05:30:33.000Z,7.92
2019-05-15T05:31:33.000Z,7.93
2019-05-15T05:32:33.000Z,7.99
2019-05-15T05:33:33.000Z,8.03
2019-05-15T05:34:33.000Z,8.03
2019-05-15T05:35:33.000Z,8.10
2019-05-15T05:36:33.000Z,8.13
2019-05-15T05:37:33.000Z,8.14
2019-05-15T05:38:33.000Z,8.20
2019-05-15T05:39:33.000Z,8.20
2019-05-15T05:40:33.000Z,8.26
2019-05-15T05:41:33.000Z,8.26
2019-05-15T05:42:33.000Z,8.21
2019-05-15T05:43:33.000Z,8.27
2019-05-15T05:44:33.000Z,8.31
2019-05-15T05:45:33.000Z,8.36
2019-05-15T05:46:33.000Z,8.37
2019-05-15T05:47:33.000Z,8.40
2019-05-15T05:48:32.000Z,8.41
2019-05-15T05:49:32.000Z,8.49
2019-05-15T05:50:32.000Z,8.57
2019-05-15T05:51:32.000Z,8.61
2019-05-15T05:52:32.000Z,8.64
2019-05-15T05:53:32.000Z,8.72
2019-05-15T05:54:32.000Z,8.75
2019-05-15T05:55:32.000Z,8.76
2019-05-15T05:56:32.000Z,8.85
2019-05-15T05:57:32.000Z,8.96
2019-05-15T05:58:32.000Z,8.96
2019-05-15T05:59:32.000Z,8.95
2019-05-15T06:00:32.000Z,9.06
2019-05-15T06:01:32.000Z,9.06
2019-05-15T06:02:32.000Z,9.09
2019-05-15T06:03:32.000Z,9.10
2019-05-15T06:04:32.000Z,9.16
2019-05-15T06:05:32.000Z,9.19
2019-05-15T06:06:32.000Z,9.21
2019-05-15T06:07:32.000Z,9.21
2019-05-15T06:08:32.000Z,9.23
2019-05-15T06:09:32.000Z,9.29
2019-05-15T06:10:32.000Z,9.31
2019-05-15T06:11:32.000Z,9.34
2019-05-15T06:12:33.000Z,9.35
2019-05-15T06:13:32.000Z,9.34
2019-05-15T06:14:32.000Z,9.35
2019-05-15T06:15:32.000Z,9.37
2019-05-15T06:16:32.000Z,9.34
2019-05-15T06:17:32.000Z,9.37
2019-05-15T06:18:32.000Z,9.41
2019-05-15T06:19:32.000Z,9.42
2019-05-15T06:20:32.000Z,9.45
2019-05-15T06:21:32.000Z,9.48
2019-05-15T06:22:32.000Z,9.51
2019-05-15T06:23:32.000Z,9.52
2019-05-15T06:24:32.000Z,9.54
2019-05-15T06:25:32.000Z,9.59
2019-05-15T06:26:32.000Z,9.62
2019-05-15T06:27:32.000Z,9.63
2019-05-15T06:28:32.000Z,9.66
2019-05-15T06:29:32.000Z,9.68
2019-05-15T06:30:32.000Z,9.70
2019-05-15T06:31:32.000Z,9.73
2019-05-15T06:32:32.000Z,9.76
2019-05-15T06:33:32.000Z,9.81
2019-05-15T06:34:32.000Z,9.89
2019-05-15T06:35:32.000Z,9.88
2019-05-15T06:36:32.000Z,9.93
2019-05-15T06:37:32.000Z,9.96
2019-05-15T06:38:32.000Z,9.94
2019-05-15T06:39:32.000Z,9.97
2019-05-15T06:40:32.000Z,10.02
2019-05-15T06:41:32.000Z,10.04
2019-05-15T06:42:32.000Z,10.07
2019-05-15T06:43:32.000Z,10.10
2019-05-15T06:44:32.000Z,10.14
2019-05-15T06:45:32.000Z,10.07
2019-05-15T06:46:32.000Z,10.09
2019-05-15T06:47:32.000Z,10.13
2019-05-15T06:48:32.000Z,10.17
2019-05-15T06:49:32.000Z,10.20
2019-05-15T06:50:32.000Z,10.23
2019-05-15T06:51:32.000Z,10.23
2019-05-15T06:52:32.000Z,10.19
2019-05-15T06:53:32.000Z,10.23
2019-05-15T06:54:32.000Z,10.20
2019-05-15T06:55:32.000Z,10.28
2019-05-15T06:56:32.000Z,10.32
2019-05-15T06:57:32.000Z,10.34
2019-05-15T06:58:32.000Z,10.38
2019-05-15T06:59:32.000Z,10.39
2019-05-15T07:00:32.000Z,10.41
2019-05-15T07:01:32.000Z,10.41
2019-05-15T07:02:32.000Z,10.39
2019-05-15T07:03:32.000Z,10.45
2019-05-15T07:04:32.000Z,10.44
2019-05-15T07:05:32.000Z,10.45
2019-05-15T07:30:49.000Z,11.08
2019-05-15T07:31:49.000Z,11.14
2019-05-15T07:32:49.000Z,11.17
2019-05-15T07:33:49.000Z,11.17
2019-05-15T07:34:49.000Z,11.12
2019-05-15T07:35:49.000Z,11.12
2019-05-15T07:36:49.000Z,11.10
2019-05-15T07:37:49.000Z,11.11
2019-05-15T07:38:49.000Z,11.12
2019-05-15T07:39:49.000Z,11.12
2019-05-15T07:40:49.000Z,11.22
2019-05-15T07:41:49.000Z,11.24
2019-05-15T07:42:49.000Z,11.25
2019-05-15T07:43:49.000Z,11.28
2019-05-15T07:44:49.000Z,11.32
2019-05-15T07:45:49.000Z,11.35
2019-05-15T07:46:50.000Z,11.37
2019-05-15T07:47:49.000Z,11.42
2019-05-15T07:48:49.000Z,11.37
2019-05-15T07:49:49.000Z,11.37
2019-05-15T07:50:49.000Z,11.39
2019-05-15T07:51:49.000Z,11.45
2019-05-15T07:52:49.000Z,11.45
2019-05-15T07:53:49.000Z,11.45
2019-05-15T07:54:49.000Z,11.49
2019-05-15T07:55:49.000Z,11.48
2019-05-15T07:56:49.000Z,11.44
2019-05-15T07:57:49.000Z,11.39
2019-05-15T07:58:49.000Z,11.47
2019-05-15T07:59:49.000Z,11.52
2019-05-15T08:00:49.000Z,11.55
2019-05-15T08:01:49.000Z,11.48
2019-05-15T08:02:49.000Z,11.54
2019-05-15T08:03:49.000Z,11.58
2019-05-15T08:04:49.000Z,11.62
2019-05-15T08:05:49.000Z,11.49
2019-05-15T08:06:49.000Z,11.52
2019-05-15T08:07:49.000Z,11.56
2019-05-15T08:08:49.000Z,11.55
2019-05-15T08:09:49.000Z,11.41
2019-05-15T08:10:49.000Z,11.34
2019-05-15T08:11:49.000Z,11.38
2019-05-15T08:12:49.000Z,11.31
2019-05-15T08:13:49.000Z,11.45
2019-05-15T08:14:49.000Z,11.44
2019-05-15T08:15:49.000Z,11.49
2019-05-15T08:16:49.000Z,11.51
2019-05-15T08:17:49.000Z,11.44
2019-05-15T08:18:49.000Z,11.55
2019-05-15T08:19:49.000Z,11.69
2019-05-15T08:20:49.000Z,11.65
2019-05-15T08:21:49.000Z,11.70
2019-05-15T08:22:49.000Z,11.75
2019-05-15T08:23:49.000Z,11.83
2019-05-15T08:24:49.000Z,11.86
2019-05-15T08:25:49.000Z,11.94
2019-05-15T08:26:49.000Z,12.00
2019-05-15T08:27:49.000Z,11.89
2019-05-15T08:28:49.000Z,11.80
2019-05-15T08:29:49.000Z,11.68
2019-05-15T08:30:49.000Z,11.73
2019-05-15T08:31:49.000Z,11.80
2019-05-15T08:32:49.000Z,11.69
2019-05-15T08:33:49.000Z,11.62
2019-05-15T08:34:49.000Z,11.72
2019-05-15T08:35:49.000Z,11.66
2019-05-15T08:36:49.000Z,11.83
2019-05-15T08:37:49.000Z,11.90
2019-05-15T08:38:49.000Z,11.96
2019-05-15T08:39:49.000Z,11.77
2019-05-15T08:40:49.000Z,11.62
2019-05-15T08:41:50.000Z,11.54
2019-05-15T08:42:49.000Z,11.62
2019-05-15T08:43:49.000Z,11.77
2019-05-15T08:44:49.000Z,11.86
2019-05-15T08:45:49.000Z,11.96
2019-05-15T08:46:49.000Z,12.04
2019-05-15T08:47:49.000Z,12.13
2019-05-15T08:48:49.000Z,12.25
2019-05-15T08:49:49.000Z,12.39
2019-05-15T08:50:49.000Z,12.51
2019-05-15T08:51:49.000Z,12.60
2019-05-15T08:52:49.000Z,12.59
2019-05-15T08:53:49.000Z,12.65
2019-05-15T08:54:49.000Z,12.67
2019-05-15T08:55:49.000Z,12.51
2019-05-15T08:56:49.000Z,12.39
2019-05-15T08:57:49.000Z,12.32
2019-05-15T08:58:49.000Z,12.38
2019-05-15T08:59:49.000Z,12.46
2019-05-15T09:00:49.000Z,12.37
2019-05-15T09:01:49.000Z,12.48
2019-05-15T09:02:49.000Z,12.46
2019-05-15T09:03:49.000Z,12.53
2019-05-15T09:04:49.000Z,12.66
2019-05-15T09:05:49.000Z,12.74
2019-05-15T09:06:49.000Z,12.80
2019-05-15T09:07:49.000Z,12.84
2019-05-15T09:08:49.000Z,12.83
2019-05-15T09:09:49.000Z,12.80
2019-05-15T09:10:49.000Z,12.91
2019-05-15T09:11:49.000Z,13.00
2019-05-15T09:12:49.000Z,13.00
2019-05-15T09:13:49.000Z,13.06
2019-05-15T09:14:49.000Z,13.14
2019-05-15T09:15:49.000Z,13.24
2019-05-15T09:16:49.000Z,13.32
2019-05-15T09:17:49.000Z,13.35
2019-05-15T09:18:49.000Z,13.39
2019-05-15T09:19:49.000Z,13.14
2019-05-15T09:20:49.000Z,12.97
2019-05-15T09:21:49.000Z,12.87
2019-05-15T09:22:49.000Z,12.73
2019-05-15T09:23:49.000Z,12.66
2019-05-15T09:24:49.000Z,12.76
2019-05-15T09:25:49.000Z,12.94
2019-05-15T09:26:49.000Z,12.72
2019-05-15T09:27:49.000Z,12.80
2019-05-15T09:28:49.000Z,12.87
2019-05-15T09:29:49.000Z,12.96
2019-05-15T09:30:49.000Z,13.08
2019-05-15T09:31:49.000Z,13.31
2019-05-15T09:32:49.000Z,13.41
2019-05-15T09:33:49.000Z,13.45
2019-05-15T09:34:49.000Z,13.42
2019-05-15T09:35:49.000Z,13.39
2019-05-15T09:36:49.000Z,13.45
2019-05-15T09:37:49.000Z,13.57
2019-05-15T09:38:49.000Z,13.50
2019-05-15T09:39:49.000Z,13.49
2019-05-15T09:40:49.000Z,13.52
2019-05-15T09:41:49.000Z,13.63
2019-05-15T09:42:49.000Z,13.72
2019-05-15T09:43:49.000Z,13.47
2019-05-15T09:44:49.000Z,13.56
2019-05-15T09:45:49.000Z,13.59
2019-05-15T09:46:49.000Z,13.43
2019-05-15T09:47:49.000Z,13.36
2019-05-15T09:48:49.000Z,13.38
2019-05-15T09:49:49.000Z,13.47
2019-05-15T09:50:49.000Z,13.43
2019-05-15T09:51:49.000Z,13.45
2019-05-15T09:52:49.000Z,13.52
2019-05-15T09:53:49.000Z,13.59
2019-05-15T09:54:49.000Z,13.64
2019-05-15T09:55:49.000Z,13.64
2019-05-15T09:56:49.000Z,13.57
2019-05-15T09:57:49.000Z,13.66
2019-05-15T09:59:46.000Z,13.79
2019-05-15T10:00:46.000Z,13.90
2019-05-15T10:01:46.000Z,13.96
2019-05-15T10:02:46.000Z,14.04
2019-05-15T10:03:46.000Z,14.14
2019-05-15T10:04:46.000Z,14.21
2019-05-15T10:05:46.000Z,14.22
2019-05-15T10:06:46.000Z,14.27
2019-05-15T10:07:46.000Z,14.02
2019-05-15T10:08:46.000Z,14.00
2019-05-15T10:09:46.000Z,14.05
2019-05-15T10:10:46.000Z,14.12
2019-05-15T10:11:46.000Z,14.02
2019-05-15T10:12:46.000Z,14.08
2019-05-15T10:13:46.000Z,14.17
2019-05-15T10:14:46.000Z,14.32
2019-05-15T10:15:46.000Z,14.38
2019-05-15T10:16:46.000Z,14.40
2019-05-15T10:17:46.000Z,14.51
2019-05-15T10:18:46.000Z,14.53
2019-05-15T10:19:46.000Z,14.60
2019-05-15T10:20:46.000Z,14.74
2019-05-15T10:21:46.000Z,14.74
2019-05-15T10:22:46.000Z,14.53
2019-05-15T10:23:46.000Z,14.48
2019-05-15T10:24:46.000Z,14.55
2019-05-15T10:25:46.000Z,14.67
2019-05-15T10:26:46.000Z,14.73
2019-05-15T10:27:46.000Z,14.84
2019-05-15T10:28:46.000Z,14.90
2019-05-15T10:29:46.000Z,14.92
2019-05-15T10:30:46.000Z,14.95
2019-05-15T10:31:46.000Z,15.02
2019-05-15T10:32:46.000Z,14.92
2019-05-15T10:33:46.000Z,14.97
2019-05-15T10:34:46.000Z,15.05
2019-05-15T10:35:46.000Z,15.08
2019-05-15T10:36:46.000Z,15.11
2019-05-15T10:37:46.000Z,15.12
2019-05-15T10:38:46.000Z,15.15
2019-05-15T10:39:47.000Z,15.15
2019-05-15T10:40:46.000Z,15.23
2019-05-15T10:41:46.000Z,15.23
2019-05-15T10:42:46.000Z,15.26
2019-05-15T10:43:46.000Z,15.32
2019-05-15T10:44:46.000Z,15.38
2019-05-15T10:45:46.000Z,15.45
2019-05-15T10:46:46.000Z,15.47
2019-05-15T10:47:46.000Z,15.41
2019-05-15T10:48:46.000Z,15.41
2019-05-15T10:49:46.000Z,15.47
2019-05-15T10:50:46.000Z,15.56
2019-05-15T10:51:47.000Z,15.62
2019-05-15T10:52:47.000Z,15.63
2019-05-15T10:53:46.000Z,15.69
2019-05-15T10:54:46.000Z,15.69
2019-05-15T10:55:46.000Z,15.73
2019-05-15T10:56:46.000Z,15.76
2019-05-15T10:57:48.000Z,15.78
2019-05-15T10:58:46.000Z,15.78
2019-05-15T10:59:46.000Z,15.80
2019-05-15T11:00:48.000Z,15.87
2019-05-15T11:01:47.000Z,15.84
2019-05-15T11:02:47.000Z,15.81
2019-05-15T11:03:47.000Z,15.90
2019-05-15T11:04:47.000Z,15.92
2019-05-15T11:05:47.000Z,15.97
2019-05-15T11:06:47.000Z,15.97
2019-05-15T11:07:47.000Z,15.97
2019-05-15T11:08:47.000Z,15.97
2019-05-15T11:09:47.000Z,15.99
2019-05-15T11:10:47.000Z,15.94
2019-05-15T11:11:47.000Z,15.73
2019-05-15T11:12:47.000Z,15.77
2019-05-15T11:13:47.000Z,15.91
2019-05-15T11:14:47.000Z,15.91
2019-05-15T11:15:47.000Z,15.87
2019-05-15T11:16:47.000Z,15.98
2019-05-15T11:17:47.000Z,16.02
2019-05-15T11:18:47.000Z,15.95
2019-05-15T11:19:47.000Z,16.08
2019-05-15T11:20:47.000Z,16.08
2019-05-15T11:21:47.000Z,16.07
2019-05-15T11:22:48.000Z,15.73
2019-05-15T11:23:47.000Z,15.81
2019-05-15T11:24:47.000Z,15.71
2019-05-15T11:25:47.000Z,15.78
2019-05-15T11:26:47.000Z,15.49
2019-05-15T11:27:47.000Z,15.52
2019-05-15T11:28:47.000Z,15.70
2019-05-15T11:29:47.000Z,15.85
2019-05-15T11:30:47.000Z,15.94
2019-05-15T11:31:47.000Z,16.04
2019-05-15T11:32:47.000Z,16.16
2019-05-15T11:33:47.000Z,16.25
2019-05-15T11:34:47.000Z,16.36
2019-05-15T11:35:47.000Z,16.43
2019-05-15T11:36:47.000Z,16.39
2019-05-15T11:37:47.000Z,16.42
2019-05-15T11:38:47.000Z,16.31
2019-05-15T11:39:47.000Z,16.24
2019-05-15T11:40:47.000Z,16.35
2019-05-15T11:41:47.000Z,16.46
2019-05-15T11:42:47.000Z,16.54
2019-05-15T11:43:47.000Z,16.60
2019-05-15T11:44:47.000Z,16.57
2019-05-15T11:45:47.000Z,16.09
2019-05-15T11:46:47.000Z,16.11
2019-05-15T11:47:47.000Z,16.14
2019-05-15T11:48:47.000Z,16.21
2019-05-15T11:49:47.000Z,16.31
2019-05-15T11:50:47.000Z,16.42
2019-05-15T11:51:47.000Z,16.45
2019-05-15T11:52:47.000Z,16.50
2019-05-15T11:53:47.000Z,16.62
2019-05-15T11:54:47.000Z,16.66
2019-05-15T11:55:47.000Z,16.75
2019-05-15T11:56:47.000Z,16.77
2019-05-15T11:57:47.000Z,16.83
2019-05-15T11:58:47.000Z,16.87
2019-05-15T11:59:47.000Z,16.88
2019-05-15T12:00:47.000Z,16.81
2019-05-15T12:01:47.000Z,16.90
2019-05-15T12:02:47.000Z,16.99
2019-05-15T12:03:47.000Z,16.94
2019-05-15T12:04:47.000Z,17.01
2019-05-15T12:05:47.000Z,17.02
2019-05-15T12:06:47.000Z,17.11
2019-05-15T12:07:47.000Z,17.07
2019-05-15T12:08:47.000Z,17.09
2019-05-15T12:09:47.000Z,16.98
2019-05-15T12:10:47.000Z,17.07
2019-05-15T12:11:47.000Z,17.12
2019-05-15T12:12:47.000Z,17.15
2019-05-15T12:13:47.000Z,17.22
2019-05-15T12:14:47.000Z,17.27
2019-05-15T12:15:47.000Z,17.32
2019-05-15T12:16:47.000Z,17.37
2019-05-15T12:17:47.000Z,17.29
2019-05-15T12:18:47.000Z,17.29
2019-05-15T12:19:47.000Z,17.30
2019-05-15T12:20:47.000Z,17.36
2019-05-15T12:21:47.000Z,17.22
2019-05-15T12:22:47.000Z,17.35
2019-05-15T12:23:47.000Z,17.33
2019-05-15T12:24:47.000Z,17.43
2019-05-15T12:25:47.000Z,17.46
2019-05-15T12:26:47.000Z,17.40
2019-05-15T12:27:47.000Z,17.40
2019-05-15T12:28:47.000Z,17.44
2019-05-15T12:29:47.000Z,17.46
2019-05-15T12:30:47.000Z,17.29
2019-05-15T12:31:47.000Z,17.25
2019-05-15T12:32:47.000Z,17.37
2019-05-15T12:33:47.000Z,17.33
2019-05-15T12:34:47.000Z,17.32
2019-05-15T12:35:47.000Z,17.39
2019-05-15T12:36:47.000Z,17.43
2019-05-15T12:37:47.000Z,17.44
2019-05-15T12:38:47.000Z,17.57
2019-05-15T12:39:47.000Z,17.66
2019-05-15T12:40:47.000Z,17.69
2019-05-15T12:41:47.000Z,17.70
2019-05-15T12:42:47.000Z,17.73
2019-05-15T12:43:47.000Z,17.56
2019-05-15T12:59:47.000Z,17.40
2019-05-15T13:00:47.000Z,17.46
2019-05-15T13:01:46.000Z,17.52
2019-05-15T13:02:47.000Z,17.66
2019-05-15T13:03:47.000Z,17.73
2019-05-15T13:04:46.000Z,17.81
2019-05-15T13:05:46.000Z,17.69
2019-05-15T13:06:46.000Z,17.71
2019-05-15T13:07:46.000Z,17.58
2019-05-15T13:08:46.000Z,17.71
2019-05-15T13:09:47.000Z,17.80
2019-05-15T13:10:46.000Z,17.85
2019-05-15T13:11:46.000Z,17.92
2019-05-15T13:12:46.000Z,18.04
2019-05-15T13:13:47.000Z,18.13
2019-05-15T13:14:46.000Z,18.23
2019-05-15T13:15:46.000Z,18.26
2019-05-15T13:16:47.000Z,18.05
2019-05-15T13:17:46.000Z,17.69
2019-05-15T13:18:47.000Z,17.91
2019-05-15T13:19:46.000Z,17.98
2019-05-15T13:20:46.000Z,18.09
2019-05-15T13:21:46.000Z,18.06
2019-05-15T13:23:46.000Z,18.05
2019-05-15T13:24:47.000Z,18.16
2019-05-15T13:25:47.000Z,17.98
2019-05-15T13:26:46.000Z,17.88
2019-05-15T13:27:46.000Z,18.05
2019-05-15T13:28:46.000Z,18.15
2019-05-15T13:29:46.000Z,18.22
2019-05-15T13:30:46.000Z,18.37
2019-05-15T13:31:47.000Z,18.40
2019-05-15T13:32:47.000Z,18.32
2019-05-15T13:33:46.000Z,18.33
2019-05-15T13:34:47.000Z,18.35
2019-05-15T13:35:47.000Z,18.23
2019-05-15T13:36:46.000Z,18.37
2019-05-15T13:37:47.000Z,18.49
2019-05-15T13:38:46.000Z,18.44
2019-05-15T13:39:46.000Z,18.50
2019-05-15T13:40:46.000Z,18.60
2019-05-15T13:41:46.000Z,18.42
2019-05-15T13:42:46.000Z,18.47
2019-05-15T13:43:47.000Z,18.52
2019-05-15T13:44:46.000Z,18.46
2019-05-15T13:45:46.000Z,18.56
2019-05-15T13:46:47.000Z,18.70